Time;durP1;ratioP1;P1;durP2;ratioP2;P2;SDS_P1;SDS_P2;PMS_P1;PMS_P2;Temp;Humidity;BMP_temperature;BMP_pressure;BME280_temperature;BME280_humidity;BME280_pressure;Samples;Min_cycle;Max_cycle;Signal;HPM_P1;HPM_P2
2023/09/19 00:00:41;;;;;;;;;;;;;;;17.61;94.09;99841.90;105616;1255;69123;-62
2023/09/19 00:03:31;;;;;;;;;;;;;;;17.61;94.15;99839.23;105566;1253;76040;-62
2023/09/19 00:05:59;;;;;;;;;;;;;;;17.62;94.22;99836.51;105618;1253;83342;-62
2023/09/19 00:08:28;;;;;;;;;;;;;;;17.63;94.46;99832.91;105613;1253;72587;-62
2023/09/19 00:10:56;;;;;;;;;;;;;;;17.64;94.70;99833.70;105597;1255;69120;-62
2023/09/19 00:13:24;;;;;;;;;;;;;;;17.67;94.91;99834.23;105649;1253;69033;-62
2023/09/19 00:15:55;;;;;;;;;;;;;;;17.67;95.08;99832.23;105596;1255;74213;-61
2023/09/19 00:18:28;;;;;;;;;;;;;;;17.68;95.16;99829.88;105599;1251;83388;-62
2023/09/19 00:20:59;;;;;;;;;;;;;;;17.69;95.36;99825.58;105565;1255;73971;-61
2023/09/19 00:23:28;;;;;;;;;;;;;;;17.68;95.24;99821.21;105593;1253;69120;-61
2023/09/19 00:25:58;;;;;;;;;;;;;;;17.68;95.38;99823.90;105617;1255;69214;-61
2023/09/19 00:28:27;;;;;;;;;;;;;;;17.66;95.23;99823.51;105653;1253;74572;-62
2023/09/19 00:30:55;;;;;;;;;;;;;;;17.67;95.55;99818.46;105590;1257;83378;-62
2023/09/19 00:33:24;;;;;;;;;;;;;;;17.68;95.64;99820.17;105603;1255;73783;-62
2023/09/19 00:35:53;;;;;;;;;;;;;;;17.68;95.65;99820.86;105659;1253;69074;-62
2023/09/19 00:38:22;;;;;;;;;;;;;;;17.69;95.78;99826.66;105643;1251;69064;-62
2023/09/19 00:40:51;;;;;;;;;;;;;;;17.67;95.69;99830.45;105626;1253;74763;-62
2023/09/19 00:43:23;;;;;;;;;;;;;;;17.67;95.90;99834.41;105591;1255;83102;-62
2023/09/19 00:45:54;;;;;;;;;;;;;;;17.67;96.12;99839.14;105620;1256;72698;-62
2023/09/19 00:48:24;;;;;;;;;;;;;;;17.67;96.18;99840.20;105568;1257;69218;-62
2023/09/19 00:50:53;;;;;;;;;;;;;;;17.66;96.05;99842.59;105499;1251;69138;-62
2023/09/19 00:53:22;;;;;;;;;;;;;;;17.60;95.84;99842.98;105550;1258;75015;-63
2023/09/19 00:55:51;;;;;;;;;;;;;;;17.55;95.96;99843.04;105565;1257;82994;-63
2023/09/19 00:58:19;;;;;;;;;;;;;;;17.55;96.40;99836.67;105606;1256;73644;-62
2023/09/19 01:00:51;;;;;;;;;;;;;;;17.54;96.44;99838.84;105617;1253;69108;-62
2023/09/19 01:03:19;;;;;;;;;;;;;;;17.54;96.62;99837.98;105584;1253;69197;-62
2023/09/19 01:05:48;;;;;;;;;;;;;;;17.52;96.83;99833.36;105587;1255;74365;-62
2023/09/19 01:08:16;;;;;;;;;;;;;;;17.51;96.92;99831.83;105553;1255;82456;-63
2023/09/19 01:10:51;;;;;;;;;;;;;;;17.50;97.10;99827.13;105609;1254;73408;-63
2023/09/19 01:13:30;;;;;;;;;;;;;;;17.52;97.47;99824.92;105533;1253;69157;-62
2023/09/19 01:15:59;;;;;;;;;;;;;;;17.53;97.48;99824.07;105506;1253;69269;-62
2023/09/19 01:18:47;;;;;;;;;;;;;;;17.54;97.52;99819.09;105634;1255;73978;-62
2023/09/19 01:21:21;;;;;;;;;;;;;;;17.56;97.70;99818.56;105606;1256;83344;-62
2023/09/19 01:24:08;;;;;;;;;;;;;;;17.56;97.74;99820.30;105510;1253;72330;-62
2023/09/19 01:26:55;;;;;;;;;;;;;;;17.53;97.55;99823.19;105537;1251;69069;-62
2023/09/19 01:29:44;;;;;;;;;;;;;;;17.53;97.75;99818.83;105549;1253;69210;-62
2023/09/19 01:32:21;;;;;;;;;;;;;;;17.52;97.81;99812.88;105550;1253;74846;-62
2023/09/19 01:35:03;;;;;;;;;;;;;;;17.52;98.07;99809.51;105522;1253;83338;-62
2023/09/19 01:37:32;;;;;;;;;;;;;;;17.52;97.71;99815.04;105608;1253;73572;-62
2023/09/19 01:40:03;;;;;;;;;;;;;;;17.46;97.60;99818.05;105566;1253;69188;-62
2023/09/19 01:42:42;;;;;;;;;;;;;;;17.42;97.58;99815.23;105628;1255;69117;-62
2023/09/19 01:45:31;;;;;;;;;;;;;;;17.37;97.52;99811.72;105547;1257;74287;-62
2023/09/19 01:48:11;;;;;;;;;;;;;;;17.34;97.77;99810.69;105568;1253;81648;-62
2023/09/19 01:50:42;;;;;;;;;;;;;;;17.33;98.09;99812.49;105565;1254;73825;-62
2023/09/19 01:53:13;;;;;;;;;;;;;;;17.31;98.15;99812.52;105536;1253;69482;-62
2023/09/19 01:55:43;;;;;;;;;;;;;;;17.28;98.24;99812.02;105546;1253;69082;-62
2023/09/19 01:58:21;;;;;;;;;;;;;;;17.28;98.30;99810.77;105586;1257;74138;-62
2023/09/19 02:00:51;;;;;;;;;;;;;;;17.27;98.45;99809.64;105544;1253;83556;-60
2023/09/19 02:03:22;;;;;;;;;;;;;;;17.25;98.27;99818.04;105477;1254;73984;-61
2023/09/19 02:05:51;;;;;;;;;;;;;;;17.22;98.23;99817.20;105503;1253;69090;-61
2023/09/19 02:08:23;;;;;;;;;;;;;;;17.21;98.61;99809.21;105591;1256;69171;-61
2023/09/19 02:10:52;;;;;;;;;;;;;;;17.22;98.96;99801.86;105548;1253;75070;-61
2023/09/19 02:13:22;;;;;;;;;;;;;;;17.25;99.19;99800.47;105526;1256;83664;-61
2023/09/19 02:15:50;;;;;;;;;;;;;;;17.26;99.23;99803.02;105613;1253;72871;-61
2023/09/19 02:18:19;;;;;;;;;;;;;;;17.25;99.08;99801.30;105608;1254;69046;-61
2023/09/19 02:20:48;;;;;;;;;;;;;;;17.24;99.06;99806.52;105601;1254;69097;-61
2023/09/19 02:23:16;;;;;;;;;;;;;;;17.22;98.94;99802.06;105526;1255;73897;-61
2023/09/19 02:25:51;;;;;;;;;;;;;;;17.19;98.77;99801.92;105642;1255;82902;-61
2023/09/19 02:28:20;;;;;;;;;;;;;;;17.15;98.60;99808.95;105553;1254;72939;-61
2023/09/19 02:30:48;;;;;;;;;;;;;;;17.12;98.69;99810.38;105511;1256;69102;-62
2023/09/19 02:33:17;;;;;;;;;;;;;;;17.09;98.77;99809.69;105837;1251;69093;-62
2023/09/19 02:35:46;;;;;;;;;;;;;;;17.09;99.22;99814.81;105356;1256;74832;-61
2023/09/19 02:38:18;;;;;;;;;;;;;;;17.11;99.52;99816.83;109407;1251;83607;-62
2023/09/19 02:40:46;;;;;;;;;;;;;;;17.12;99.56;99812.11;109395;1251;72435;-63
2023/09/19 02:43:14;;;;;;;;;;;;;;;17.14;99.83;99803.31;109385;1251;66892;-63
2023/09/19 02:45:42;;;;;;;;;;;;;;;17.17;99.88;99806.28;109424;1251;66730;-63
2023/09/19 02:48:11;;;;;;;;;;;;;;;17.20;99.87;99809.14;107977;1255;73674;-62
2023/09/19 02:50:40;;;;;;;;;;;;;;;17.19;99.66;99803.71;105628;1253;83238;-62
2023/09/19 02:53:08;;;;;;;;;;;;;;;17.19;99.78;99798.39;105628;1254;73812;-62
2023/09/19 02:55:38;;;;;;;;;;;;;;;17.19;99.71;99798.90;105559;1253;69190;-62
2023/09/19 02:58:13;;;;;;;;;;;;;;;17.18;99.65;99804.29;105652;1255;69100;-61
2023/09/19 03:00:42;;;;;;;;;;;;;;;17.16;99.66;99808.45;105624;1254;73753;-62
2023/09/19 03:03:11;;;;;;;;;;;;;;;17.15;99.63;99810.88;105555;1255;83434;-61
2023/09/19 03:05:39;;;;;;;;;;;;;;;17.12;99.61;99807.70;105499;1253;73853;-62
2023/09/19 03:08:08;;;;;;;;;;;;;;;17.10;99.63;99808.25;105626;1256;69142;-62
2023/09/19 03:10:37;;;;;;;;;;;;;;;17.07;99.64;99809.70;105620;1251;69094;-62
2023/09/19 03:13:09;;;;;;;;;;;;;;;17.04;99.58;99809.56;105611;1256;74132;-61
2023/09/19 03:15:40;;;;;;;;;;;;;;;17.02;99.78;99813.63;105512;1253;83366;-62
2023/09/19 03:18:09;;;;;;;;;;;;;;;17.01;100.00;99811.73;105596;1255;73070;-62
2023/09/19 03:20:38;;;;;;;;;;;;;;;17.00;100.00;99808.81;105566;1255;69190;-62
2023/09/19 03:23:08;;;;;;;;;;;;;;;16.98;100.00;99808.39;105532;1258;69206;-62
2023/09/19 03:25:37;;;;;;;;;;;;;;;16.94;99.98;99804.10;105598;1255;74864;-62
2023/09/19 03:28:05;;;;;;;;;;;;;;;16.91;99.98;99803.77;105569;1259;83617;-62
2023/09/19 03:30:34;;;;;;;;;;;;;;;16.88;99.94;99804.89;105651;1253;73524;-62
2023/09/19 03:33:04;;;;;;;;;;;;;;;16.83;99.69;99805.42;105478;1256;69180;-62
2023/09/19 03:35:34;;;;;;;;;;;;;;;16.77;99.66;99811.17;105513;1257;69066;-62
2023/09/19 03:38:03;;;;;;;;;;;;;;;16.72;99.88;99809.03;105624;1256;73407;-62
2023/09/19 03:40:31;;;;;;;;;;;;;;;16.67;100.00;99804.25;105558;1253;81888;-62
2023/09/19 03:43:02;;;;;;;;;;;;;;;16.62;99.91;99812.95;105595;1251;72737;-62
2023/09/19 03:45:31;;;;;;;;;;;;;;;16.57;99.98;99810.30;105592;1255;69168;-62
2023/09/19 03:47:59;;;;;;;;;;;;;;;16.53;100.00;99809.86;105461;1256;69096;-62
2023/09/19 03:50:28;;;;;;;;;;;;;;;16.49;100.00;99811.86;105611;1255;74903;-62
2023/09/19 03:52:57;;;;;;;;;;;;;;;16.45;100.00;99810.56;105609;1256;83311;-62
2023/09/19 03:55:26;;;;;;;;;;;;;;;16.42;100.00;99811.70;105653;1253;72568;-62
2023/09/19 03:57:55;;;;;;;;;;;;;;;16.39;100.00;99812.46;105615;1253;69107;-62
2023/09/19 04:00:26;;;;;;;;;;;;;;;16.37;100.00;99809.06;105579;1256;69109;-62
2023/09/19 04:02:56;;;;;;;;;;;;;;;16.35;100.00;99800.58;105619;1256;73516;-62
2023/09/19 04:05:25;;;;;;;;;;;;;;;16.34;100.00;99801.52;105593;1253;83307;-62
2023/09/19 04:07:53;;;;;;;;;;;;;;;16.33;100.00;99801.39;105503;1259;72649;-62
2023/09/19 04:10:22;;;;;;;;;;;;;;;16.32;100.00;99796.55;105468;1255;69267;-62
2023/09/19 04:12:53;;;;;;;;;;;;;;;16.30;100.00;99808.99;105475;1252;69142;-62
2023/09/19 04:15:23;;;;;;;;;;;;;;;16.27;100.00;99809.73;105615;1256;74502;-62
2023/09/19 04:17:53;;;;;;;;;;;;;;;16.24;100.00;99811.70;105599;1254;83312;-62
2023/09/19 04:20:25;;;;;;;;;;;;;;;16.22;100.00;99813.64;105504;1253;73787;-62
2023/09/19 04:22:54;;;;;;;;;;;;;;;16.20;100.00;99811.45;105538;1254;69161;-62
2023/09/19 04:25:23;;;;;;;;;;;;;;;16.20;100.00;99808.13;105656;1253;69162;-62
2023/09/19 04:27:51;;;;;;;;;;;;;;;16.20;100.00;99816.77;105514;1259;75143;-61
2023/09/19 04:30:21;;;;;;;;;;;;;;;16.20;100.00;99818.85;105651;1253;82371;-62
2023/09/19 04:32:50;;;;;;;;;;;;;;;16.21;100.00;99822.17;105594;1253;72878;-62
2023/09/19 04:35:20;;;;;;;;;;;;;;;16.21;100.00;99823.91;105618;1255;69157;-62
2023/09/19 04:37:48;;;;;;;;;;;;;;;16.22;100.00;99823.31;105557;1256;69177;-62
2023/09/19 04:40:19;;;;;;;;;;;;;;;16.22;100.00;99821.52;105579;1259;74805;-62
2023/09/19 04:42:56;;;;;;;;;;;;;;;16.22;100.00;99820.17;105600;1255;83455;-63
2023/09/19 04:45:26;;;;;;;;;;;;;;;16.23;100.00;99819.55;105600;1255;73619;-63
2023/09/19 04:47:54;;;;;;;;;;;;;;;16.25;100.00;99823.41;105597;1256;69182;-62
2023/09/19 04:50:24;;;;;;;;;;;;;;;16.26;100.00;99826.38;105631;1263;69153;-67
2023/09/19 04:52:53;;;;;;;;;;;;;;;16.28;100.00;99826.61;105666;1256;75045;-62
2023/09/19 04:55:21;;;;;;;;;;;;;;;16.29;100.00;99828.66;105605;1253;82519;-62
2023/09/19 04:57:50;;;;;;;;;;;;;;;16.31;100.00;99831.72;105631;1256;73350;-61
2023/09/19 05:00:23;;;;;;;;;;;;;;;16.35;100.00;99831.94;105708;1254;69007;-61
2023/09/19 05:02:52;;;;;;;;;;;;;;;16.40;100.00;99837.95;105804;1255;69122;-62
2023/09/19 05:05:22;;;;;;;;;;;;;;;16.44;100.00;99838.02;105603;1253;73735;-63
2023/09/19 05:07:51;;;;;;;;;;;;;;;16.46;100.00;99836.95;105650;1255;83705;-62
2023/09/19 05:10:20;;;;;;;;;;;;;;;16.48;100.00;99839.27;105790;1255;73910;-64
2023/09/19 05:12:51;;;;;;;;;;;;;;;16.50;100.00;99842.11;105842;1251;69051;-63
2023/09/19 05:15:20;;;;;;;;;;;;;;;16.53;100.00;99843.36;105728;1254;69143;-62
2023/09/19 05:17:50;;;;;;;;;;;;;;;16.55;100.00;99843.41;105694;1257;74739;-61
2023/09/19 05:20:29;;;;;;;;;;;;;;;16.57;100.00;99843.46;105733;1256;82252;-63
2023/09/19 05:23:02;;;;;;;;;;;;;;;16.59;100.00;99849.49;105711;1256;73690;-63
2023/09/19 05:25:37;;;;;;;;;;;;;;;16.63;100.00;99845.45;105705;1256;69173;-60
2023/09/19 05:28:11;;;;;;;;;;;;;;;16.68;100.00;99847.08;105661;1253;69084;-62
2023/09/19 05:30:40;;;;;;;;;;;;;;;16.70;100.00;99847.10;105729;1256;74516;-62
2023/09/19 05:33:09;;;;;;;;;;;;;;;16.72;100.00;99850.83;105725;1257;83548;-60
2023/09/19 05:35:39;;;;;;;;;;;;;;;16.76;100.00;99850.04;105593;1251;73780;-61
2023/09/19 05:38:08;;;;;;;;;;;;;;;16.80;99.99;99857.18;105821;1261;69179;-61
2023/09/19 05:40:38;;;;;;;;;;;;;;;16.84;99.99;99847.23;105697;1255;69766;-61
2023/09/19 05:43:06;;;;;;;;;;;;;;;16.87;99.93;99846.98;105774;1256;75010;-61
2023/09/19 05:45:36;;;;;;;;;;;;;;;16.90;99.75;99847.12;105942;1256;83740;-61
2023/09/19 05:48:08;;;;;;;;;;;;;;;16.93;99.64;99855.56;105694;1256;72364;-61
2023/09/19 05:50:36;;;;;;;;;;;;;;;16.96;99.55;99856.04;105761;1251;69041;-60
2023/09/19 05:53:05;;;;;;;;;;;;;;;17.00;99.48;99853.65;105626;1255;69087;-62
2023/09/19 05:55:33;;;;;;;;;;;;;;;17.02;99.37;99850.67;105738;1256;74095;-63
2023/09/19 05:58:03;;;;;;;;;;;;;;;17.04;99.25;99855.13;105594;1257;82435;-59
2023/09/19 06:00:32;;;;;;;;;;;;;;;17.06;99.26;99858.98;105681;1257;72314;-60
2023/09/19 06:03:00;;;;;;;;;;;;;;;17.09;99.09;99865.14;105670;1255;69203;-61
2023/09/19 06:05:31;;;;;;;;;;;;;;;17.13;99.09;99859.20;105649;1257;68993;-61
2023/09/19 06:08:00;;;;;;;;;;;;;;;17.18;99.03;99865.21;105650;1255;73106;-59
2023/09/19 06:10:29;;;;;;;;;;;;;;;17.23;98.98;99868.72;105679;1256;84393;-60
2023/09/19 06:12:57;;;;;;;;;;;;;;;17.28;98.89;99874.02;105752;1264;74326;-60
2023/09/19 06:15:26;;;;;;;;;;;;;;;17.33;98.70;99881.92;105702;1254;69077;-60
2023/09/19 06:17:56;;;;;;;;;;;;;;;17.39;98.66;99885.20;105723;1256;69177;-61
2023/09/19 06:20:25;;;;;;;;;;;;;;;17.45;98.64;99887.23;105703;1257;74170;-60
2023/09/19 06:22:54;;;;;;;;;;;;;;;17.52;98.71;99895.55;105629;1256;82253;-60
2023/09/19 06:25:22;;;;;;;;;;;;;;;17.60;98.61;99903.23;105534;1256;74102;-61
2023/09/19 06:27:53;;;;;;;;;;;;;;;17.67;98.48;99905.89;106813;1256;69170;-60
2023/09/19 06:30:26;;;;;;;;;;;;;;;17.75;98.31;99904.27;105651;1257;69131;-60
2023/09/19 06:32:57;;;;;;;;;;;;;;;17.80;97.96;99904.30;105580;1256;74163;-60
2023/09/19 06:35:26;;;;;;;;;;;;;;;17.84;97.79;99907.52;105634;1259;82516;-60
2023/09/19 06:37:57;;;;;;;;;;;;;;;17.88;97.66;99909.52;105560;1256;74076;-60
2023/09/19 06:40:27;;;;;;;;;;;;;;;17.91;97.48;99913.02;105587;1256;69231;-60
2023/09/19 06:42:56;;;;;;;;;;;;;;;17.93;97.22;99918.32;105616;1256;69125;-59
2023/09/19 06:45:26;;;;;;;;;;;;;;;17.95;97.08;99921.87;105604;1257;75215;-60
2023/09/19 06:47:57;;;;;;;;;;;;;;;17.99;96.96;99923.52;105601;1256;82821;-60
2023/09/19 06:50:27;;;;;;;;;;;;;;;18.03;96.89;99925.84;105601;1255;73742;-61
2023/09/19 06:52:57;;;;;;;;;;;;;;;18.11;96.82;99935.55;105667;1255;69160;-61
2023/09/19 06:55:30;;;;;;;;;;;;;;;18.19;96.75;99936.50;105596;1255;69189;-61
2023/09/19 06:58:00;;;;;;;;;;;;;;;18.27;96.52;99938.36;105591;1256;73818;-61
2023/09/19 07:00:31;;;;;;;;;;;;;;;18.36;96.25;99943.52;105559;1257;83676;-60
2023/09/19 07:03:00;;;;;;;;;;;;;;;18.42;95.90;99948.71;105600;1256;73654;-60
2023/09/19 07:05:31;;;;;;;;;;;;;;;18.49;95.67;99951.00;105567;1257;70503;-60
2023/09/19 07:07:59;;;;;;;;;;;;;;;18.57;95.53;99953.41;105639;1256;69182;-60
2023/09/19 07:10:28;;;;;;;;;;;;;;;18.69;95.59;99958.33;105597;1251;73634;-60
2023/09/19 07:13:00;;;;;;;;;;;;;;;18.80;95.09;99961.25;105639;1257;82816;-60
2023/09/19 07:15:29;;;;;;;;;;;;;;;18.86;94.63;99963.57;105586;1251;73690;-60
2023/09/19 07:17:57;;;;;;;;;;;;;;;18.90;94.31;99965.38;105597;1257;69189;-61
2023/09/19 07:20:26;;;;;;;;;;;;;;;18.94;94.14;99971.80;105542;1255;69162;-60
2023/09/19 07:22:55;;;;;;;;;;;;;;;19.01;94.12;99970.52;105650;1256;73915;-61
2023/09/19 07:25:24;;;;;;;;;;;;;;;19.10;94.15;99975.80;105602;1255;83383;-61
2023/09/19 07:27:52;;;;;;;;;;;;;;;19.22;94.16;99973.14;105615;1257;72724;-61
2023/09/19 07:30:20;;;;;;;;;;;;;;;19.33;93.97;99972.45;105587;1256;69198;-61
2023/09/19 07:32:48;;;;;;;;;;;;;;;19.37;93.36;99972.05;105590;1257;69074;-60
2023/09/19 07:35:18;;;;;;;;;;;;;;;19.38;92.86;99968.47;105621;1256;74958;-61
2023/09/19 07:37:51;;;;;;;;;;;;;;;19.44;92.80;99979.20;105619;1251;84268;-60
2023/09/19 07:40:20;;;;;;;;;;;;;;;19.52;92.63;99981.72;105589;1257;73716;-61
2023/09/19 07:42:50;;;;;;;;;;;;;;;19.57;92.30;99983.04;105628;1262;69120;-60
2023/09/19 07:45:18;;;;;;;;;;;;;;;19.64;91.92;99986.22;105636;1251;69166;-61
2023/09/19 07:47:47;;;;;;;;;;;;;;;19.70;91.71;99990.58;105557;1252;74818;-61
2023/09/19 07:50:18;;;;;;;;;;;;;;;19.77;91.28;99994.76;105651;1257;82601;-61
2023/09/19 07:52:47;;;;;;;;;;;;;;;19.80;90.96;99996.08;105539;1256;71391;-61
2023/09/19 07:55:17;;;;;;;;;;;;;;;19.85;90.86;99996.57;105632;1251;69157;-61
2023/09/19 07:57:46;;;;;;;;;;;;;;;19.94;90.67;100002.22;105608;1257;69114;-61
2023/09/19 08:00:15;;;;;;;;;;;;;;;19.98;90.11;100003.86;105444;1257;250042;-61
2023/09/19 08:02:43;;;;;;;;;;;;;;;19.99;89.92;100005.54;105630;1256;83144;-62
2023/09/19 08:05:16;;;;;;;;;;;;;;;20.03;89.99;100007.87;105622;1252;73774;-62
2023/09/19 08:07:48;;;;;;;;;;;;;;;20.01;89.18;100014.23;105606;1251;69048;-61
2023/09/19 08:10:19;;;;;;;;;;;;;;;19.88;88.69;100007.14;105568;1257;69130;-62
2023/09/19 08:12:48;;;;;;;;;;;;;;;19.85;88.72;100016.44;105651;1255;73768;-61
2023/09/19 08:15:17;;;;;;;;;;;;;;;19.87;89.09;100017.50;105645;1255;83363;-61
2023/09/19 08:17:45;;;;;;;;;;;;;;;19.91;88.99;100020.22;105592;1255;72712;-61
2023/09/19 08:20:18;;;;;;;;;;;;;;;19.93;88.96;100026.81;105577;1251;69050;-61
2023/09/19 08:22:47;;;;;;;;;;;;;;;19.95;88.79;100027.71;105603;1256;69086;-61
2023/09/19 08:25:18;;;;;;;;;;;;;;;19.95;88.52;100033.52;105607;1257;73838;-61
2023/09/19 08:27:48;;;;;;;;;;;;;;;19.94;88.34;100035.19;105596;1255;83600;-61
2023/09/19 08:30:23;;;;;;;;;;;;;;;19.94;88.18;100038.23;105630;1256;73546;-61
2023/09/19 08:32:59;;;;;;;;;;;;;;;19.94;88.14;100046.38;105598;1256;69193;-61
2023/09/19 08:35:27;;;;;;;;;;;;;;;19.95;87.73;100049.32;105634;1251;69225;-61
2023/09/19 08:37:56;;;;;;;;;;;;;;;19.93;87.65;100043.96;105644;1256;73734;-62
2023/09/19 08:40:27;;;;;;;;;;;;;;;19.99;87.84;100048.08;105706;1256;83348;-61
2023/09/19 08:42:56;;;;;;;;;;;;;;;20.05;87.81;100047.94;105584;1256;72673;-62
2023/09/19 08:45:27;;;;;;;;;;;;;;;20.15;87.81;100048.41;105605;1251;69179;-61
2023/09/19 08:48:14;;;;;;;;;;;;;;;20.22;87.63;100050.05;105639;1256;69266;-61
2023/09/19 08:50:44;;;;;;;;;;;;;;;20.29;87.18;100050.58;105593;1251;73809;-62
2023/09/19 08:53:27;;;;;;;;;;;;;;;20.34;86.69;100051.39;105616;1257;83555;-61
2023/09/19 08:55:57;;;;;;;;;;;;;;;20.40;86.51;100054.08;105611;1253;73559;-61
2023/09/19 08:58:27;;;;;;;;;;;;;;;20.42;85.97;100052.30;105581;1251;69167;-61
2023/09/19 09:00:56;;;;;;;;;;;;;;;20.45;85.94;100054.73;105638;1255;69105;-62
2023/09/19 09:03:25;;;;;;;;;;;;;;;20.51;85.52;100059.23;105628;1251;74838;-62
2023/09/19 09:05:54;;;;;;;;;;;;;;;20.52;85.18;100063.61;105600;1252;84106;-62
2023/09/19 09:08:23;;;;;;;;;;;;;;;20.55;84.95;100065.17;105637;1256;72612;-62
2023/09/19 09:10:51;;;;;;;;;;;;;;;20.57;84.62;100067.05;105632;1251;69224;-62
2023/09/19 09:13:21;;;;;;;;;;;;;;;20.66;84.58;100065.04;105662;1251;69052;-61
2023/09/19 09:15:50;;;;;;;;;;;;;;;20.69;84.42;100065.36;105620;1251;73773;-61
2023/09/19 09:18:18;;;;;;;;;;;;;;;20.68;84.06;100069.67;105562;1251;83370;-62
2023/09/19 09:20:48;;;;;;;;;;;;;;;20.62;83.49;100081.38;105630;1256;72626;-62
2023/09/19 09:23:16;;;;;;;;;;;;;;;20.58;83.16;100083.15;105620;1253;69183;-61
2023/09/19 09:25:47;;;;;;;;;;;;;;;20.59;83.01;100088.95;105544;1255;69187;-61
2023/09/19 09:28:19;;;;;;;;;;;;;;;20.63;82.86;100089.52;105551;1257;75045;-61
2023/09/19 09:30:47;;;;;;;;;;;;;;;20.73;82.87;100092.52;105597;1251;83859;-61
2023/09/19 09:33:16;;;;;;;;;;;;;;;20.76;82.45;100097.11;105627;1251;72649;-62
2023/09/19 09:35:56;;;;;;;;;;;;;;;20.73;82.00;100100.20;105596;1251;69053;-61
2023/09/19 09:38:32;;;;;;;;;;;;;;;20.60;81.71;100097.52;105610;1251;69259;-62
2023/09/19 09:41:06;;;;;;;;;;;;;;;20.57;81.66;100105.25;105632;1251;74830;-62
2023/09/19 09:43:40;;;;;;;;;;;;;;;20.52;81.61;100106.34;105582;1258;82336;-62
2023/09/19 09:49:14;;;;;;;;;;;;;;;20.40;81.41;100125.60;105581;1256;69183;-61
2023/09/19 09:51:43;;;;;;;;;;;;;;;20.48;81.85;100125.70;105615;1255;69231;-62
2023/09/19 09:54:12;;;;;;;;;;;;;;;20.62;81.75;100125.92;105637;1255;73821;-62
2023/09/19 09:57:21;;;;;;;;;;;;;;;20.87;81.68;100125.82;105633;1252;83324;-62
2023/09/19 09:59:50;;;;;;;;;;;;;;;21.14;81.17;100124.73;105577;1253;74167;-62
2023/09/19 10:02:40;;;;;;;;;;;;;;;21.38;80.97;100125.22;105618;1257;70664;-62
2023/09/19 10:05:40;;;;;;;;;;;;;;;21.57;80.25;100122.32;105598;1255;69177;-62
2023/09/19 10:08:18;;;;;;;;;;;;;;;21.58;79.59;100126.86;105655;1257;75046;-62
2023/09/19 10:13:23;;;;;;;;;;;;;;;22.38;79.45;100125.27;105591;1255;73944;-62
2023/09/19 10:15:53;;;;;;;;;;;;;;;22.83;78.98;100127.38;105613;1257;69205;-62
2023/09/19 10:18:24;;;;;;;;;;;;;;;23.14;78.09;100129.53;105618;1251;69053;-63
2023/09/19 10:20:52;;;;;;;;;;;;;;;23.33;76.88;100127.48;105642;1255;74123;-62
2023/09/19 10:23:25;;;;;;;;;;;;;;;23.46;76.61;100129.52;105666;1256;83681;-62
2023/09/19 10:25:54;;;;;;;;;;;;;;;23.69;76.13;100131.73;105597;1251;73731;-62
2023/09/19 10:28:23;;;;;;;;;;;;;;;23.98;75.38;100136.46;105591;1251;69200;-62
2023/09/19 10:30:52;;;;;;;;;;;;;;;24.06;74.80;100137.09;105669;1255;69205;-63
2023/09/19 10:33:22;;;;;;;;;;;;;;;23.94;73.71;100139.53;105630;1251;74999;-63
2023/09/19 10:35:53;;;;;;;;;;;;;;;23.82;73.01;100139.30;105677;1256;83309;-63
2023/09/19 10:38:26;;;;;;;;;;;;;;;23.40;71.66;100141.11;105584;1251;73430;-62
2023/09/19 10:40:55;;;;;;;;;;;;;;;23.07;71.50;100141.35;105642;1251;69195;-62
2023/09/19 10:43:25;;;;;;;;;;;;;;;23.01;71.71;100141.83;105637;1251;69101;-63
2023/09/19 10:45:54;;;;;;;;;;;;;;;23.09;71.69;100142.59;105654;1251;74838;-62
2023/09/19 10:48:25;;;;;;;;;;;;;;;22.95;71.22;100143.33;105644;1257;82592;-63
2023/09/19 10:51:09;;;;;;;;;;;;;;;22.78;71.37;100147.84;105644;1251;73322;-63
2023/09/19 10:53:43;;;;;;;;;;;;;;;22.54;70.12;100153.72;105635;1251;69017;-62
2023/09/19 10:56:17;;;;;;;;;;;;;;;22.31;69.77;100151.48;105607;1254;69193;-62
2023/09/19 10:58:45;;;;;;;;;;;;;;;22.48;69.75;100147.53;105680;1255;73857;-62
2023/09/19 11:01:15;;;;;;;;;;;;;;;22.81;69.61;100152.00;105627;1256;83152;-63
2023/09/19 11:03:43;;;;;;;;;;;;;;;23.05;69.34;100147.25;105638;1251;73057;-63
2023/09/19 11:06:15;;;;;;;;;;;;;;;23.48;69.09;100145.67;105667;1256;69075;-62
2023/09/19 11:11:41;;;;;;;;;;;;;;;24.46;67.62;100140.52;105642;1251;75273;-63
2023/09/19 11:14:25;;;;;;;;;;;;;;;24.94;66.74;100142.47;105588;1256;83288;-62
2023/09/19 11:17:15;;;;;;;;;;;;;;;25.21;64.72;100147.82;105645;1253;72408;-63
2023/09/19 11:22:58;;;;;;;;;;;;;;;25.64;62.19;100140.85;105637;1251;69156;-63
2023/09/19 11:25:29;;;;;;;;;;;;;;;25.79;61.81;100145.77;105619;1251;74799;-63
2023/09/19 11:28:21;;;;;;;;;;;;;;;26.01;61.26;100150.70;105600;1255;83205;-63
2023/09/19 11:30:50;;;;;;;;;;;;;;;25.75;59.14;100147.57;105622;1255;72107;-63
2023/09/19 11:33:31;;;;;;;;;;;;;;;25.88;59.25;100144.11;105640;1251;69175;-63
2023/09/19 11:36:15;;;;;;;;;;;;;;;25.95;58.30;100141.52;105620;1255;69132;-63
2023/09/19 11:38:44;;;;;;;;;;;;;;;25.45;57.04;100143.30;105651;1255;73812;-63
2023/09/19 11:41:31;;;;;;;;;;;;;;;24.96;55.78;100142.77;105649;1251;83405;-63
2023/09/19 11:44:00;;;;;;;;;;;;;;;24.64;56.35;100133.91;105577;1251;73828;-63
2023/09/19 11:46:29;;;;;;;;;;;;;;;24.96;56.71;100132.77;105641;1251;69183;-63
2023/09/19 11:49:09;;;;;;;;;;;;;;;25.35;56.83;100134.41;105628;1256;69171;-63
2023/09/19 11:51:43;;;;;;;;;;;;;;;25.77;56.40;100136.59;105607;1251;75054;-63
2023/09/19 11:54:18;;;;;;;;;;;;;;;26.03;55.64;100139.59;105615;1256;83372;-63
2023/09/19 11:56:50;;;;;;;;;;;;;;;26.21;55.12;100138.60;105597;1253;72438;-63
2023/09/19 11:59:22;;;;;;;;;;;;;;;26.31;54.45;100136.27;105607;1253;69199;-63
2023/09/19 12:01:57;;;;;;;;;;;;;;;26.43;53.77;100136.95;105600;1251;69302;-63
2023/09/19 12:04:39;;;;;;;;;;;;;;;26.69;53.83;100143.83;105644;1251;74725;-63
2023/09/19 12:07:12;;;;;;;;;;;;;;;26.67;52.76;100142.05;105660;1255;83636;-63
2023/09/19 12:09:46;;;;;;;;;;;;;;;26.45;52.34;100143.48;105650;1251;73635;-63
2023/09/19 12:12:29;;;;;;;;;;;;;;;26.73;52.56;100139.66;105606;1255;69138;-64
2023/09/19 12:14:58;;;;;;;;;;;;;;;27.13;52.71;100134.54;105608;1251;69110;-64
2023/09/19 12:17:37;;;;;;;;;;;;;;;27.37;51.76;100134.94;105661;1254;73798;-64
2023/09/19 12:20:14;;;;;;;;;;;;;;;27.29;50.65;100135.04;105682;1251;82422;-64
2023/09/19 12:22:43;;;;;;;;;;;;;;;27.13;50.48;100134.83;105609;1254;72655;-65
2023/09/19 12:25:13;;;;;;;;;;;;;;;27.28;50.19;100133.95;105653;1251;69206;-65
2023/09/19 12:27:46;;;;;;;;;;;;;;;27.35;49.93;100131.35;105628;1251;69088;-65
2023/09/19 12:30:17;;;;;;;;;;;;;;;27.41;49.63;100127.30;105623;1254;74889;-65
2023/09/19 12:32:49;;;;;;;;;;;;;;;27.22;49.28;100129.73;105087;1263;83133;-65
2023/09/19 12:35:28;;;;;;;;;;;;;;;26.65;48.82;100132.56;105100;1263;73885;-64
2023/09/19 12:37:56;;;;;;;;;;;;;;;25.98;48.82;100138.66;105066;1265;69318;-65
2023/09/19 12:40:27;;;;;;;;;;;;;;;25.55;49.31;100134.77;105033;1263;69266;-65
2023/09/19 12:43:04;;;;;;;;;;;;;;;25.38;49.21;100133.13;105054;1260;75258;-64
2023/09/19 12:45:35;;;;;;;;;;;;;;;25.11;49.49;100126.98;105055;1258;82835;-65
2023/09/19 12:48:28;;;;;;;;;;;;;;;25.06;49.86;100124.42;105059;1258;73404;-64
2023/09/19 12:51:05;;;;;;;;;;;;;;;25.46;50.37;100120.52;105268;1251;69282;-65
2023/09/19 12:53:40;;;;;;;;;;;;;;;25.89;50.07;100123.39;105669;1251;69189;-64
2023/09/19 12:56:10;;;;;;;;;;;;;;;26.31;50.07;100121.63;105681;1251;73660;-64
2023/09/19 12:59:02;;;;;;;;;;;;;;;26.62;49.23;100121.19;105657;1251;83374;-64
2023/09/19 13:01:31;;;;;;;;;;;;;;;26.89;48.61;100114.95;105595;1251;72700;-64
2023/09/19 13:04:15;;;;;;;;;;;;;;;27.19;48.70;100121.42;105648;1255;69101;-65